sensor_id;sensor_type;location;lat;lon;timestamp;temperature;humidity
15705;DHT22;7952;48.396;12.806;2022-12-18T00:01:23;-0.60;59.20
15705;DHT22;7952;48.396;12.806;2022-12-18T00:03:49;-0.70;59.10
15705;DHT22;7952;48.396;12.806;2022-12-18T00:06:16;-0.70;59.20
15705;DHT22;7952;48.396;12.806;2022-12-18T00:08:43;-0.70;59.10
15705;DHT22;7952;48.396;12.806;2022-12-18T00:11:12;-0.70;59.10
15705;DHT22;7952;48.396;12.806;2022-12-18T00:13:38;-0.70;59.20
15705;DHT22;7952;48.396;12.806;2022-12-18T00:16:10;-0.70;59.20
15705;DHT22;7952;48.396;12.806;2022-12-18T00:18:36;-0.70;59.30
15705;DHT22;7952;48.396;12.806;2022-12-18T00:21:05;-0.70;59.20
15705;DHT22;7952;48.396;12.806;2022-12-18T00:23:32;-0.80;59.20
15705;DHT22;7952;48.396;12.806;2022-12-18T00:26:02;-0.80;59.20
15705;DHT22;7952;48.396;12.806;2022-12-18T00:28:28;-0.80;59.30
15705;DHT22;7952;48.396;12.806;2022-12-18T00:31:06;-0.80;59.30
15705;DHT22;7952;48.396;12.806;2022-12-18T00:33:32;-0.80;59.30
15705;DHT22;7952;48.396;12.806;2022-12-18T00:36:10;-0.80;59.30
15705;DHT22;7952;48.396;12.806;2022-12-18T00:38:36;-0.80;59.30
15705;DHT22;7952;48.396;12.806;2022-12-18T00:41:03;-0.80;59.40
15705;DHT22;7952;48.396;12.806;2022-12-18T00:43:30;-0.80;59.90
15705;DHT22;7952;48.396;12.806;2022-12-18T00:45:55;-0.70;59.50
15705;DHT22;7952;48.396;12.806;2022-12-18T00:48:21;-0.70;59.50
15705;DHT22;7952;48.396;12.806;2022-12-18T00:50:48;-0.70;59.50
15705;DHT22;7952;48.396;12.806;2022-12-18T00:53:14;-0.70;59.40
15705;DHT22;7952;48.396;12.806;2022-12-18T00:55:40;-0.70;59.40
15705;DHT22;7952;48.396;12.806;2022-12-18T00:58:06;-0.70;59.40
15705;DHT22;7952;48.396;12.806;2022-12-18T01:00:32;-0.70;59.40
15705;DHT22;7952;48.396;12.806;2022-12-18T01:02:58;-0.70;59.30
15705;DHT22;7952;48.396;12.806;2022-12-18T01:05:24;-0.70;59.30
15705;DHT22;7952;48.396;12.806;2022-12-18T01:07:49;-0.80;59.30
15705;DHT22;7952;48.396;12.806;2022-12-18T01:10:15;-0.80;59.30
15705;DHT22;7952;48.396;12.806;2022-12-18T01:12:41;-0.80;59.30
15705;DHT22;7952;48.396;12.806;2022-12-18T01:15:09;-0.80;59.30
15705;DHT22;7952;48.396;12.806;2022-12-18T01:17:35;-0.80;60.00
15705;DHT22;7952;48.396;12.806;2022-12-18T01:20:01;-0.80;59.40
15705;DHT22;7952;48.396;12.806;2022-12-18T01:22:26;-0.80;59.40
15705;DHT22;7952;48.396;12.806;2022-12-18T01:24:52;-0.80;59.40
15705;DHT22;7952;48.396;12.806;2022-12-18T01:27:17;-0.80;59.40
15705;DHT22;7952;48.396;12.806;2022-12-18T01:29:43;-0.80;59.40
15705;DHT22;7952;48.396;12.806;2022-12-18T01:32:09;-0.80;59.50
15705;DHT22;7952;48.396;12.806;2022-12-18T01:34:38;-0.80;59.40
15705;DHT22;7952;48.396;12.806;2022-12-18T01:37:04;-0.80;59.40
15705;DHT22;7952;48.396;12.806;2022-12-18T01:39:30;-0.80;59.40
15705;DHT22;7952;48.396;12.806;2022-12-18T01:41:58;-0.80;59.40
15705;DHT22;7952;48.396;12.806;2022-12-18T01:47:41;-0.80;59.40
15705;DHT22;7952;48.396;12.806;2022-12-18T01:52:54;-0.80;59.40
15705;DHT22;7952;48.396;12.806;2022-12-18T01:55:23;-0.80;59.40
15705;DHT22;7952;48.396;12.806;2022-12-18T01:57:53;-0.80;59.40
15705;DHT22;7952;48.396;12.806;2022-12-18T02:00:21;-0.80;59.40
15705;DHT22;7952;48.396;12.806;2022-12-18T02:02:47;-0.90;59.40
15705;DHT22;7952;48.396;12.806;2022-12-18T02:05:17;-0.90;59.40
15705;DHT22;7952;48.396;12.806;2022-12-18T02:11:00;-0.90;59.40
15705;DHT22;7952;48.396;12.806;2022-12-18T02:17:01;-1.00;59.30
15705;DHT22;7952;48.396;12.806;2022-12-18T02:27:32;-1.00;59.50
15705;DHT22;7952;48.396;12.806;2022-12-18T02:30:01;-1.00;59.50
15705;DHT22;7952;48.396;12.806;2022-12-18T02:32:31;-1.00;59.50
15705;DHT22;7952;48.396;12.806;2022-12-18T02:34:58;-1.00;59.60
15705;DHT22;7952;48.396;12.806;2022-12-18T02:37:26;-1.10;59.50
15705;DHT22;7952;48.396;12.806;2022-12-18T02:39:53;-1.10;59.50
15705;DHT22;7952;48.396;12.806;2022-12-18T02:42:21;-1.10;59.50
15705;DHT22;7952;48.396;12.806;2022-12-18T02:44:49;-1.10;59.60
15705;DHT22;7952;48.396;12.806;2022-12-18T02:47:18;-1.10;59.60
15705;DHT22;7952;48.396;12.806;2022-12-18T03:00:51;-1.00;59.70
15705;DHT22;7952;48.396;12.806;2022-12-18T03:03:29;-1.00;59.70
15705;DHT22;7952;48.396;12.806;2022-12-18T03:06:14;-1.00;59.70
15705;DHT22;7952;48.396;12.806;2022-12-18T03:08:47;-1.00;59.70
15705;DHT22;7952;48.396;12.806;2022-12-18T03:11:15;-0.90;59.70
15705;DHT22;7952;48.396;12.806;2022-12-18T03:16:10;-0.90;59.80
15705;DHT22;7952;48.396;12.806;2022-12-18T03:18:50;-0.90;59.70
15705;DHT22;7952;48.396;12.806;2022-12-18T03:21:21;-0.90;59.70
15705;DHT22;7952;48.396;12.806;2022-12-18T03:23:50;-0.90;59.70
15705;DHT22;7952;48.396;12.806;2022-12-18T03:26:19;-0.80;59.60
15705;DHT22;7952;48.396;12.806;2022-12-18T03:28:51;-0.80;59.60
15705;DHT22;7952;48.396;12.806;2022-12-18T03:31:19;-0.90;59.40
15705;DHT22;7952;48.396;12.806;2022-12-18T03:36:12;-0.90;59.40
15705;DHT22;7952;48.396;12.806;2022-12-18T03:38:38;-0.90;59.40
15705;DHT22;7952;48.396;12.806;2022-12-18T03:41:15;-0.90;59.40
15705;DHT22;7952;48.396;12.806;2022-12-18T03:43:52;-0.90;59.40
15705;DHT22;7952;48.396;12.806;2022-12-18T03:46:41;-1.00;59.40
15705;DHT22;7952;48.396;12.806;2022-12-18T03:49:12;-1.00;59.40
15705;DHT22;7952;48.396;12.806;2022-12-18T03:52:16;-1.00;59.40
15705;DHT22;7952;48.396;12.806;2022-12-18T03:54:33;-1.00;59.50
15705;DHT22;7952;48.396;12.806;2022-12-18T03:57:29;-1.00;59.50
15705;DHT22;7952;48.396;12.806;2022-12-18T04:00:00;-1.00;59.60
15705;DHT22;7952;48.396;12.806;2022-12-18T04:02:26;-1.00;59.60
15705;DHT22;7952;48.396;12.806;2022-12-18T04:04:53;-1.00;59.60
15705;DHT22;7952;48.396;12.806;2022-12-18T04:07:22;-1.00;59.60
15705;DHT22;7952;48.396;12.806;2022-12-18T04:09:50;-1.00;59.60
15705;DHT22;7952;48.396;12.806;2022-12-18T04:12:18;-1.00;59.60
15705;DHT22;7952;48.396;12.806;2022-12-18T04:14:44;-1.00;59.60
15705;DHT22;7952;48.396;12.806;2022-12-18T04:17:10;-1.00;59.60
15705;DHT22;7952;48.396;12.806;2022-12-18T04:19:36;-1.00;59.60
15705;DHT22;7952;48.396;12.806;2022-12-18T04:22:01;-1.00;59.60
15705;DHT22;7952;48.396;12.806;2022-12-18T04:24:28;-1.00;59.60
15705;DHT22;7952;48.396;12.806;2022-12-18T04:26:54;-1.00;59.60
15705;DHT22;7952;48.396;12.806;2022-12-18T04:29:19;-1.00;59.60
15705;DHT22;7952;48.396;12.806;2022-12-18T04:31:45;-1.10;59.60
15705;DHT22;7952;48.396;12.806;2022-12-18T04:34:11;-1.10;59.60
15705;DHT22;7952;48.396;12.806;2022-12-18T04:36:36;-1.10;59.70
15705;DHT22;7952;48.396;12.806;2022-12-18T04:39:02;-1.10;59.70
15705;DHT22;7952;48.396;12.806;2022-12-18T04:41:28;-1.10;59.70
15705;DHT22;7952;48.396;12.806;2022-12-18T04:43:53;-1.00;59.70
15705;DHT22;7952;48.396;12.806;2022-12-18T04:46:19;-1.00;59.70
15705;DHT22;7952;48.396;12.806;2022-12-18T04:48:46;-1.10;59.60
15705;DHT22;7952;48.396;12.806;2022-12-18T04:51:12;-1.10;59.60
15705;DHT22;7952;48.396;12.806;2022-12-18T04:53:38;-1.10;59.60
15705;DHT22;7952;48.396;12.806;2022-12-18T04:56:09;-1.10;59.70
15705;DHT22;7952;48.396;12.806;2022-12-18T04:58:36;-1.10;59.70
15705;DHT22;7952;48.396;12.806;2022-12-18T05:01:02;-1.10;59.70
15705;DHT22;7952;48.396;12.806;2022-12-18T05:03:29;-1.10;59.70
15705;DHT22;7952;48.396;12.806;2022-12-18T05:05:54;-1.10;59.70
15705;DHT22;7952;48.396;12.806;2022-12-18T05:08:20;-1.10;59.70
15705;DHT22;7952;48.396;12.806;2022-12-18T05:10:46;-1.10;59.70
15705;DHT22;7952;48.396;12.806;2022-12-18T05:13:11;-1.10;59.80
15705;DHT22;7952;48.396;12.806;2022-12-18T05:15:37;-1.10;59.80
15705;DHT22;7952;48.396;12.806;2022-12-18T05:18:03;-1.10;59.80
15705;DHT22;7952;48.396;12.806;2022-12-18T05:20:30;-1.10;59.80
15705;DHT22;7952;48.396;12.806;2022-12-18T05:22:56;-1.00;59.90
15705;DHT22;7952;48.396;12.806;2022-12-18T05:25:22;-1.00;59.90
15705;DHT22;7952;48.396;12.806;2022-12-18T05:27:48;-1.00;59.90
15705;DHT22;7952;48.396;12.806;2022-12-18T05:30:15;-1.00;59.80
15705;DHT22;7952;48.396;12.806;2022-12-18T05:32:41;-1.00;59.80
15705;DHT22;7952;48.396;12.806;2022-12-18T05:35:08;-0.90;59.90
15705;DHT22;7952;48.396;12.806;2022-12-18T05:37:34;-0.90;59.80
15705;DHT22;7952;48.396;12.806;2022-12-18T05:40:01;-0.90;59.80
15705;DHT22;7952;48.396;12.806;2022-12-18T05:42:27;-0.90;59.80
15705;DHT22;7952;48.396;12.806;2022-12-18T05:44:52;-0.90;59.80
15705;DHT22;7952;48.396;12.806;2022-12-18T05:47:18;-0.90;59.80
15705;DHT22;7952;48.396;12.806;2022-12-18T05:49:44;-0.90;59.90
15705;DHT22;7952;48.396;12.806;2022-12-18T05:52:09;-0.90;59.90
15705;DHT22;7952;48.396;12.806;2022-12-18T05:54:35;-0.90;59.80
15705;DHT22;7952;48.396;12.806;2022-12-18T05:57:01;-0.90;59.80
15705;DHT22;7952;48.396;12.806;2022-12-18T05:59:26;-0.90;59.80
15705;DHT22;7952;48.396;12.806;2022-12-18T06:01:52;-0.90;59.80
15705;DHT22;7952;48.396;12.806;2022-12-18T06:04:18;-0.90;59.80
15705;DHT22;7952;48.396;12.806;2022-12-18T06:06:43;-0.90;59.80
15705;DHT22;7952;48.396;12.806;2022-12-18T06:09:09;-0.90;59.80
15705;DHT22;7952;48.396;12.806;2022-12-18T06:11:38;-0.90;59.80
15705;DHT22;7952;48.396;12.806;2022-12-18T06:14:05;-0.80;59.80
15705;DHT22;7952;48.396;12.806;2022-12-18T06:16:32;-0.80;59.80
15705;DHT22;7952;48.396;12.806;2022-12-18T06:19:03;-0.90;59.70
15705;DHT22;7952;48.396;12.806;2022-12-18T06:21:29;-0.90;59.70
15705;DHT22;7952;48.396;12.806;2022-12-18T06:23:55;-0.90;59.70
15705;DHT22;7952;48.396;12.806;2022-12-18T06:26:21;-0.90;59.70
15705;DHT22;7952;48.396;12.806;2022-12-18T06:28:47;-0.90;59.70
15705;DHT22;7952;48.396;12.806;2022-12-18T06:31:13;-0.90;59.70
15705;DHT22;7952;48.396;12.806;2022-12-18T06:33:39;-0.90;59.70
15705;DHT22;7952;48.396;12.806;2022-12-18T06:36:11;-0.90;59.70
15705;DHT22;7952;48.396;12.806;2022-12-18T06:38:39;-0.90;59.70
15705;DHT22;7952;48.396;12.806;2022-12-18T06:41:16;-0.90;59.70
15705;DHT22;7952;48.396;12.806;2022-12-18T06:43:43;-0.90;59.80
15705;DHT22;7952;48.396;12.806;2022-12-18T06:46:09;-0.90;59.80
15705;DHT22;7952;48.396;12.806;2022-12-18T06:48:35;-0.90;59.80
15705;DHT22;7952;48.396;12.806;2022-12-18T06:51:01;-0.90;59.70
15705;DHT22;7952;48.396;12.806;2022-12-18T06:53:27;-1.00;59.70
15705;DHT22;7952;48.396;12.806;2022-12-18T06:55:59;-1.00;59.60
15705;DHT22;7952;48.396;12.806;2022-12-18T06:58:24;-1.00;59.90
15705;DHT22;7952;48.396;12.806;2022-12-18T07:00:50;-1.00;59.60
15705;DHT22;7952;48.396;12.806;2022-12-18T07:03:17;-1.00;59.60
15705;DHT22;7952;48.396;12.806;2022-12-18T07:05:42;-1.00;59.70
15705;DHT22;7952;48.396;12.806;2022-12-18T07:08:08;-1.10;59.70
15705;DHT22;7952;48.396;12.806;2022-12-18T07:10:41;-1.10;59.70
15705;DHT22;7952;48.396;12.806;2022-12-18T07:13:06;-1.10;59.70
15705;DHT22;7952;48.396;12.806;2022-12-18T07:15:32;-1.10;59.70
15705;DHT22;7952;48.396;12.806;2022-12-18T07:17:58;-1.10;59.70
15705;DHT22;7952;48.396;12.806;2022-12-18T07:20:23;-1.00;59.80
15705;DHT22;7952;48.396;12.806;2022-12-18T07:22:49;-1.00;59.90
15705;DHT22;7952;48.396;12.806;2022-12-18T07:25:15;-1.00;59.90
15705;DHT22;7952;48.396;12.806;2022-12-18T07:27:47;-1.00;59.80
15705;DHT22;7952;48.396;12.806;2022-12-18T07:30:13;-1.00;59.80
15705;DHT22;7952;48.396;12.806;2022-12-18T07:32:41;-1.00;59.80
15705;DHT22;7952;48.396;12.806;2022-12-18T07:35:07;-1.00;59.80
15705;DHT22;7952;48.396;12.806;2022-12-18T07:37:33;-1.00;59.80
15705;DHT22;7952;48.396;12.806;2022-12-18T07:40:08;-1.00;59.80
15705;DHT22;7952;48.396;12.806;2022-12-18T07:42:34;-1.00;59.80
15705;DHT22;7952;48.396;12.806;2022-12-18T07:45:02;-1.00;59.70
15705;DHT22;7952;48.396;12.806;2022-12-18T07:47:36;-0.90;59.80
15705;DHT22;7952;48.396;12.806;2022-12-18T07:50:04;-0.90;59.80
15705;DHT22;7952;48.396;12.806;2022-12-18T07:52:30;-0.90;59.80
15705;DHT22;7952;48.396;12.806;2022-12-18T07:54:56;-0.90;59.70
15705;DHT22;7952;48.396;12.806;2022-12-18T07:57:21;-0.90;59.70
15705;DHT22;7952;48.396;12.806;2022-12-18T07:59:47;-0.90;59.60
15705;DHT22;7952;48.396;12.806;2022-12-18T08:02:13;-1.00;59.50
15705;DHT22;7952;48.396;12.806;2022-12-18T08:04:39;-1.00;59.40
15705;DHT22;7952;48.396;12.806;2022-12-18T08:07:04;-1.00;59.50
15705;DHT22;7952;48.396;12.806;2022-12-18T08:09:30;-1.00;59.50
15705;DHT22;7952;48.396;12.806;2022-12-18T08:11:56;-1.00;59.50
15705;DHT22;7952;48.396;12.806;2022-12-18T08:14:21;-1.10;59.50
15705;DHT22;7952;48.396;12.806;2022-12-18T08:16:47;-1.10;59.50
15705;DHT22;7952;48.396;12.806;2022-12-18T08:19:12;-1.10;59.60
15705;DHT22;7952;48.396;12.806;2022-12-18T08:21:38;-1.00;59.70
15705;DHT22;7952;48.396;12.806;2022-12-18T08:24:04;-1.00;59.70
15705;DHT22;7952;48.396;12.806;2022-12-18T08:26:31;-1.00;59.60
15705;DHT22;7952;48.396;12.806;2022-12-18T08:28:58;-1.00;59.50
15705;DHT22;7952;48.396;12.806;2022-12-18T08:31:25;-1.00;59.60
15705;DHT22;7952;48.396;12.806;2022-12-18T08:33:52;-1.00;59.60
15705;DHT22;7952;48.396;12.806;2022-12-18T08:36:19;-1.00;59.60
15705;DHT22;7952;48.396;12.806;2022-12-18T08:38:45;-1.00;59.60
15705;DHT22;7952;48.396;12.806;2022-12-18T08:41:12;-1.00;59.60
15705;DHT22;7952;48.396;12.806;2022-12-18T08:43:38;-1.00;59.70
15705;DHT22;7952;48.396;12.806;2022-12-18T08:46:25;-0.90;59.80
15705;DHT22;7952;48.396;12.806;2022-12-18T08:48:52;-0.90;59.80
15705;DHT22;7952;48.396;12.806;2022-12-18T08:51:18;-0.90;59.70
15705;DHT22;7952;48.396;12.806;2022-12-18T08:53:46;-0.90;59.70
15705;DHT22;7952;48.396;12.806;2022-12-18T08:56:13;-0.80;60.30
15705;DHT22;7952;48.396;12.806;2022-12-18T08:58:40;-0.80;59.70
15705;DHT22;7952;48.396;12.806;2022-12-18T09:01:08;-0.80;59.70
15705;DHT22;7952;48.396;12.806;2022-12-18T09:03:34;-0.80;59.70
15705;DHT22;7952;48.396;12.806;2022-12-18T09:06:02;-0.70;59.80
15705;DHT22;7952;48.396;12.806;2022-12-18T09:08:28;-0.70;59.70
15705;DHT22;7952;48.396;12.806;2022-12-18T09:10:54;-0.70;59.70
15705;DHT22;7952;48.396;12.806;2022-12-18T09:13:21;-0.60;59.80
15705;DHT22;7952;48.396;12.806;2022-12-18T09:15:52;-0.60;59.70
15705;DHT22;7952;48.396;12.806;2022-12-18T09:18:20;-0.60;59.70
15705;DHT22;7952;48.396;12.806;2022-12-18T09:20:46;-0.50;59.80
15705;DHT22;7952;48.396;12.806;2022-12-18T09:23:12;-0.50;59.70
15705;DHT22;7952;48.396;12.806;2022-12-18T09:25:38;-0.40;59.90
15705;DHT22;7952;48.396;12.806;2022-12-18T09:28:12;-0.40;59.90
15705;DHT22;7952;48.396;12.806;2022-12-18T09:30:44;-0.30;59.90
15705;DHT22;7952;48.396;12.806;2022-12-18T09:33:10;-0.30;59.80
15705;DHT22;7952;48.396;12.806;2022-12-18T09:35:39;-0.20;59.90
15705;DHT22;7952;48.396;12.806;2022-12-18T09:38:07;-0.10;59.90
15705;DHT22;7952;48.396;12.806;2022-12-18T09:40:43;-0.10;59.90
15705;DHT22;7952;48.396;12.806;2022-12-18T09:43:18;0.00;59.90
15705;DHT22;7952;48.396;12.806;2022-12-18T09:45:47;0.00;59.70
15705;DHT22;7952;48.396;12.806;2022-12-18T09:48:36;0.10;59.70
15705;DHT22;7952;48.396;12.806;2022-12-18T09:51:55;0.10;59.40
15705;DHT22;7952;48.396;12.806;2022-12-18T09:54:23;0.10;59.40
15705;DHT22;7952;48.396;12.806;2022-12-18T09:56:51;0.10;59.40
15705;DHT22;7952;48.396;12.806;2022-12-18T09:59:36;0.10;59.40
15705;DHT22;7952;48.396;12.806;2022-12-18T10:02:17;0.10;59.40
15705;DHT22;7952;48.396;12.806;2022-12-18T10:04:43;0.10;59.30
15705;DHT22;7952;48.396;12.806;2022-12-18T10:07:35;0.10;59.20
15705;DHT22;7952;48.396;12.806;2022-12-18T10:10:35;0.20;59.20
15705;DHT22;7952;48.396;12.806;2022-12-18T10:16:27;0.20;59.50
15705;DHT22;7952;48.396;12.806;2022-12-18T10:21:30;0.50;59.60
15705;DHT22;7952;48.396;12.806;2022-12-18T10:26:34;0.80;59.80
15705;DHT22;7952;48.396;12.806;2022-12-18T10:29:00;0.90;59.70
15705;DHT22;7952;48.396;12.806;2022-12-18T10:31:26;1.00;59.70
15705;DHT22;7952;48.396;12.806;2022-12-18T10:33:56;1.00;59.50
15705;DHT22;7952;48.396;12.806;2022-12-18T10:36:23;1.00;59.40
15705;DHT22;7952;48.396;12.806;2022-12-18T10:38:52;1.00;59.20
15705;DHT22;7952;48.396;12.806;2022-12-18T10:43:50;1.00;58.90
15705;DHT22;7952;48.396;12.806;2022-12-18T10:46:34;0.90;58.90
15705;DHT22;7952;48.396;12.806;2022-12-18T10:49:00;1.00;59.20
15705;DHT22;7952;48.396;12.806;2022-12-18T10:51:34;1.20;59.60
15705;DHT22;7952;48.396;12.806;2022-12-18T10:56:29;1.50;59.80
15705;DHT22;7952;48.396;12.806;2022-12-18T10:59:04;1.60;59.50
15705;DHT22;7952;48.396;12.806;2022-12-18T11:01:55;1.70;59.40
15705;DHT22;7952;48.396;12.806;2022-12-18T11:04:27;1.80;59.40
15705;DHT22;7952;48.396;12.806;2022-12-18T11:06:59;1.80;59.30
15705;DHT22;7952;48.396;12.806;2022-12-18T11:09:32;1.80;59.10
15705;DHT22;7952;48.396;12.806;2022-12-18T11:12:04;1.70;58.80
15705;DHT22;7952;48.396;12.806;2022-12-18T11:14:51;1.70;58.70
15705;DHT22;7952;48.396;12.806;2022-12-18T11:17:35;1.60;58.60
15705;DHT22;7952;48.396;12.806;2022-12-18T11:20:06;1.60;59.00
15705;DHT22;7952;48.396;12.806;2022-12-18T11:22:43;1.60;59.20
15705;DHT22;7952;48.396;12.806;2022-12-18T11:25:19;1.70;59.50
15705;DHT22;7952;48.396;12.806;2022-12-18T11:27:52;1.70;59.50
15705;DHT22;7952;48.396;12.806;2022-12-18T11:32:54;1.90;59.90
15705;DHT22;7952;48.396;12.806;2022-12-18T11:38:10;2.20;59.70
15705;DHT22;7952;48.396;12.806;2022-12-18T11:40:40;2.20;59.50
15705;DHT22;7952;48.396;12.806;2022-12-18T11:43:16;2.30;59.30
15705;DHT22;7952;48.396;12.806;2022-12-18T11:46:24;2.30;58.80
15705;DHT22;7952;48.396;12.806;2022-12-18T11:48:54;2.20;58.50
15705;DHT22;7952;48.396;12.806;2022-12-18T11:51:32;2.10;58.30
15705;DHT22;7952;48.396;12.806;2022-12-18T11:54:00;2.10;59.20
15705;DHT22;7952;48.396;12.806;2022-12-18T11:56:40;2.10;58.90
15705;DHT22;7952;48.396;12.806;2022-12-18T12:04:37;2.60;59.90
15705;DHT22;7952;48.396;12.806;2022-12-18T12:21:41;2.80;58.20
15705;DHT22;7952;48.396;12.806;2022-12-18T12:38:37;2.60;59.70
15705;DHT22;7952;48.396;12.806;2022-12-18T12:41:08;2.70;59.70
15705;DHT22;7952;48.396;12.806;2022-12-18T12:43:57;2.70;59.70
15705;DHT22;7952;48.396;12.806;2022-12-18T12:46:25;2.60;59.60
15705;DHT22;7952;48.396;12.806;2022-12-18T12:48:55;2.60;59.60
15705;DHT22;7952;48.396;12.806;2022-12-18T12:51:33;2.50;59.40
15705;DHT22;7952;48.396;12.806;2022-12-18T12:54:01;2.50;59.40
15705;DHT22;7952;48.396;12.806;2022-12-18T12:57:20;2.40;58.90
15705;DHT22;7952;48.396;12.806;2022-12-18T13:07:55;1.90;58.20
15705;DHT22;7952;48.396;12.806;2022-12-18T13:10:26;1.80;58.30
15705;DHT22;7952;48.396;12.806;2022-12-18T13:13:07;1.70;58.30
15705;DHT22;7952;48.396;12.806;2022-12-18T13:15:43;1.50;58.10
15705;DHT22;7952;48.396;12.806;2022-12-18T13:20:42;1.30;58.10
15705;DHT22;7952;48.396;12.806;2022-12-18T13:34:21;0.80;58.50
15705;DHT22;7952;48.396;12.806;2022-12-18T13:36:48;0.70;58.50
15705;DHT22;7952;48.396;12.806;2022-12-18T13:41:43;0.70;58.70
15705;DHT22;7952;48.396;12.806;2022-12-18T13:46:54;0.70;58.60
15705;DHT22;7952;48.396;12.806;2022-12-18T13:51:54;0.60;59.20
15705;DHT22;7952;48.396;12.806;2022-12-18T13:54:33;0.60;58.70
15705;DHT22;7952;48.396;12.806;2022-12-18T13:57:01;0.50;58.70
15705;DHT22;7952;48.396;12.806;2022-12-18T13:59:35;0.50;58.80
15705;DHT22;7952;48.396;12.806;2022-12-18T14:04:38;0.50;58.80
15705;DHT22;7952;48.396;12.806;2022-12-18T14:07:07;0.40;58.70
15705;DHT22;7952;48.396;12.806;2022-12-18T14:09:40;0.40;58.70
15705;DHT22;7952;48.396;12.806;2022-12-18T14:12:16;0.30;58.60
15705;DHT22;7952;48.396;12.806;2022-12-18T14:15:01;0.30;58.60
15705;DHT22;7952;48.396;12.806;2022-12-18T14:17:27;0.20;59.10
15705;DHT22;7952;48.396;12.806;2022-12-18T14:19:52;0.20;58.60
15705;DHT22;7952;48.396;12.806;2022-12-18T14:22:24;0.20;58.70
15705;DHT22;7952;48.396;12.806;2022-12-18T14:30:42;0.10;58.70
15705;DHT22;7952;48.396;12.806;2022-12-18T14:35:36;0.00;58.60
15705;DHT22;7952;48.396;12.806;2022-12-18T14:38:26;-0.10;58.60
15705;DHT22;7952;48.396;12.806;2022-12-18T14:40:53;-0.10;58.70
15705;DHT22;7952;48.396;12.806;2022-12-18T14:43:20;-0.10;58.70
15705;DHT22;7952;48.396;12.806;2022-12-18T14:45:46;-0.20;58.60
15705;DHT22;7952;48.396;12.806;2022-12-18T14:48:38;-0.20;58.60
15705;DHT22;7952;48.396;12.806;2022-12-18T14:51:17;-0.30;58.50
15705;DHT22;7952;48.396;12.806;2022-12-18T14:53:46;-0.30;58.50
15705;DHT22;7952;48.396;12.806;2022-12-18T14:56:33;-0.40;58.40
15705;DHT22;7952;48.396;12.806;2022-12-18T14:59:04;-0.50;58.40
15705;DHT22;7952;48.396;12.806;2022-12-18T15:01:36;-0.60;58.30
15705;DHT22;7952;48.396;12.806;2022-12-18T15:04:04;-0.60;58.40
15705;DHT22;7952;48.396;12.806;2022-12-18T15:06:36;-0.70;58.30
15705;DHT22;7952;48.396;12.806;2022-12-18T15:09:22;-0.70;58.30
15705;DHT22;7952;48.396;12.806;2022-12-18T15:11:49;-0.80;58.30
15705;DHT22;7952;48.396;12.806;2022-12-18T15:14:42;-0.90;58.20
15705;DHT22;7952;48.396;12.806;2022-12-18T15:17:22;-0.90;58.30
15705;DHT22;7952;48.396;12.806;2022-12-18T15:19:50;-1.00;58.30
15705;DHT22;7952;48.396;12.806;2022-12-18T15:24:44;-1.10;58.40
15705;DHT22;7952;48.396;12.806;2022-12-18T15:27:46;-1.20;58.30
15705;DHT22;7952;48.396;12.806;2022-12-18T15:32:40;-1.30;58.30
15705;DHT22;7952;48.396;12.806;2022-12-18T15:35:16;-1.30;58.40
15705;DHT22;7952;48.396;12.806;2022-12-18T15:37:43;-1.40;58.40
15705;DHT22;7952;48.396;12.806;2022-12-18T15:40:14;-1.40;59.00
15705;DHT22;7952;48.396;12.806;2022-12-18T15:42:40;-1.40;58.40
15705;DHT22;7952;48.396;12.806;2022-12-18T15:45:24;-1.50;58.40
15705;DHT22;7952;48.396;12.806;2022-12-18T15:47:49;-1.50;58.40
15705;DHT22;7952;48.396;12.806;2022-12-18T15:50:15;-1.50;58.40
15705;DHT22;7952;48.396;12.806;2022-12-18T15:52:43;-1.60;59.00
15705;DHT22;7952;48.396;12.806;2022-12-18T15:55:18;-1.60;58.50
15705;DHT22;7952;48.396;12.806;2022-12-18T15:58:04;-1.60;58.50
15705;DHT22;7952;48.396;12.806;2022-12-18T16:00:31;-1.60;58.50
15705;DHT22;7952;48.396;12.806;2022-12-18T16:02:57;-1.70;58.40
15705;DHT22;7952;48.396;12.806;2022-12-18T16:05:23;-1.70;58.40
15705;DHT22;7952;48.396;12.806;2022-12-18T16:07:49;-1.70;58.50
15705;DHT22;7952;48.396;12.806;2022-12-18T16:10:15;-1.70;58.40
15705;DHT22;7952;48.396;12.806;2022-12-18T16:12:41;-1.70;58.40
15705;DHT22;7952;48.396;12.806;2022-12-18T16:15:08;-1.80;58.30
15705;DHT22;7952;48.396;12.806;2022-12-18T16:17:35;-1.80;58.40
15705;DHT22;7952;48.396;12.806;2022-12-18T16:20:01;-1.80;58.40
15705;DHT22;7952;48.396;12.806;2022-12-18T16:22:29;-1.80;58.40
15705;DHT22;7952;48.396;12.806;2022-12-18T16:24:55;-1.80;58.40
15705;DHT22;7952;48.396;12.806;2022-12-18T16:27:22;-1.80;58.40
15705;DHT22;7952;48.396;12.806;2022-12-18T16:29:48;-1.80;58.40
15705;DHT22;7952;48.396;12.806;2022-12-18T16:32:19;-1.90;58.30
15705;DHT22;7952;48.396;12.806;2022-12-18T16:34:45;-1.90;58.40
15705;DHT22;7952;48.396;12.806;2022-12-18T16:37:13;-1.90;58.30
15705;DHT22;7952;48.396;12.806;2022-12-18T16:39:40;-1.90;58.30
15705;DHT22;7952;48.396;12.806;2022-12-18T16:42:11;-1.90;58.30
15705;DHT22;7952;48.396;12.806;2022-12-18T16:44:40;-1.90;58.30
15705;DHT22;7952;48.396;12.806;2022-12-18T16:47:05;-1.90;58.30
15705;DHT22;7952;48.396;12.806;2022-12-18T16:49:32;-2.00;58.20
15705;DHT22;7952;48.396;12.806;2022-12-18T16:51:58;-2.00;58.20
15705;DHT22;7952;48.396;12.806;2022-12-18T16:54:24;-2.10;58.20
15705;DHT22;7952;48.396;12.806;2022-12-18T16:56:50;-2.10;58.20
15705;DHT22;7952;48.396;12.806;2022-12-18T16:59:17;-2.10;58.20
15705;DHT22;7952;48.396;12.806;2022-12-18T17:01:42;-2.20;58.20
15705;DHT22;7952;48.396;12.806;2022-12-18T17:04:08;-2.20;58.20
15705;DHT22;7952;48.396;12.806;2022-12-18T17:06:39;-2.20;58.20
15705;DHT22;7952;48.396;12.806;2022-12-18T17:09:07;-2.20;58.20
15705;DHT22;7952;48.396;12.806;2022-12-18T17:11:34;-2.20;58.20
15705;DHT22;7952;48.396;12.806;2022-12-18T17:14:16;-2.30;58.10
15705;DHT22;7952;48.396;12.806;2022-12-18T17:16:42;-2.30;58.20
15705;DHT22;7952;48.396;12.806;2022-12-18T17:19:08;-2.30;58.20
15705;DHT22;7952;48.396;12.806;2022-12-18T17:21:34;-2.30;58.20
15705;DHT22;7952;48.396;12.806;2022-12-18T17:24:00;-2.30;58.30
15705;DHT22;7952;48.396;12.806;2022-12-18T17:26:27;-2.40;58.20
15705;DHT22;7952;48.396;12.806;2022-12-18T17:28:55;-2.40;58.20
15705;DHT22;7952;48.396;12.806;2022-12-18T17:31:23;-2.40;58.20
15705;DHT22;7952;48.396;12.806;2022-12-18T17:33:50;-2.40;58.20
15705;DHT22;7952;48.396;12.806;2022-12-18T17:36:16;-2.50;58.20
15705;DHT22;7952;48.396;12.806;2022-12-18T17:38:42;-2.50;58.20
15705;DHT22;7952;48.396;12.806;2022-12-18T17:41:10;-2.50;58.20
15705;DHT22;7952;48.396;12.806;2022-12-18T17:43:36;-2.50;58.20
15705;DHT22;7952;48.396;12.806;2022-12-18T17:46:11;-2.50;58.20
15705;DHT22;7952;48.396;12.806;2022-12-18T17:48:37;-2.50;58.20
15705;DHT22;7952;48.396;12.806;2022-12-18T17:51:04;-2.50;58.20
15705;DHT22;7952;48.396;12.806;2022-12-18T17:53:30;-2.50;58.20
15705;DHT22;7952;48.396;12.806;2022-12-18T17:55:58;-2.50;58.20
15705;DHT22;7952;48.396;12.806;2022-12-18T17:58:28;-2.50;58.30
15705;DHT22;7952;48.396;12.806;2022-12-18T18:00:54;-2.50;58.30
15705;DHT22;7952;48.396;12.806;2022-12-18T18:03:22;-2.50;58.30
15705;DHT22;7952;48.396;12.806;2022-12-18T18:05:48;-2.50;58.30